KLHB/LHB METAR and TAF weather

Enter ICAO airport designator
Station Type Date Time Source
KLHB METAR 2021/09/16 22:15 UTC NOAA

KLHB 162215Z AUTO 07009KT 10SM SCT042 32/21 A2984 RMK AO2 T03150205


Station Type Date Time Source
KLHB Decoded METAR 2021/09/16 22:15 UTC NOAA

Hearne, Hearne Municipal Airport, TX, United States (KLHB) 30-52-18N 096-37-20W
Sep 16, 2021 - 06:15 PM EDT / 2021.09.16 2215 UTC
Wind: from the ENE (070 degrees) at 10 MPH (9 KT):0
Visibility: 10 mile(s):0
Sky conditions: partly cloudy
Temperature: 88.7 F (31.5 C)
Dew Point: 68.9 F (20.5 C)
Relative Humidity: 52%
Pressure (altimeter): 29.84 in. Hg (1010 hPa)
ob: KLHB 162215Z AUTO 07009KT 10SM SCT042 32/21 A2984 RMK AO2 T03150205
cycle: 22

Station Type Date Time Source
KLHB TAF UTC NOAA

Error!

Example: see airport list